createdAt,value
2023-11-30T00:02:04.109Z,100250.78
2023-11-30T00:04:32.537Z,100250.50
2023-11-30T00:07:00.902Z,100245.38
2023-11-30T00:09:29.243Z,100240.03
2023-11-30T00:11:57.575Z,100241.13
2023-11-30T00:14:26.003Z,100241.03
2023-11-30T00:16:55.781Z,100231.25
2023-11-30T00:19:24.138Z,100227.06
2023-11-30T00:21:52.483Z,100233.72
2023-11-30T00:24:20.806Z,100227.41
2023-11-30T00:26:49.328Z,100234.28
2023-11-30T00:29:17.640Z,100245.38
2023-11-30T00:31:45.897Z,100242.22
2023-11-30T00:34:15.711Z,100249.91
2023-11-30T00:36:44.174Z,100258.09
2023-11-30T00:39:12.662Z,100256.50
2023-11-30T00:41:41.020Z,100267.81
2023-11-30T00:44:09.513Z,100274.31
2023-11-30T00:46:37.906Z,100282.97
2023-11-30T00:49:06.385Z,100289.53
2023-11-30T00:51:36.264Z,100292.16
2023-11-30T00:54:04.638Z,100302.16
2023-11-30T00:56:33.113Z,100305.72
2023-11-30T00:59:01.420Z,100305.72
2023-11-30T01:01:29.911Z,100316.09
2023-11-30T01:03:58.373Z,100327.28
2023-11-30T01:06:26.821Z,100317.19
2023-11-30T01:08:56.619Z,100324.06
2023-11-30T01:11:25.225Z,100330.34
2023-11-30T01:13:53.540Z,100325.25
2023-11-30T01:16:21.864Z,100334.63
2023-11-30T01:18:51.755Z,100346.38
2023-11-30T01:21:20.281Z,100340.22
2023-11-30T01:23:48.977Z,100355.63
2023-11-30T01:26:18.756Z,100346.47
2023-11-30T01:28:47.076Z,100344.56
2023-11-30T01:31:15.406Z,100350.72
2023-11-30T01:33:43.975Z,100350.78
2023-11-30T01:36:12.947Z,100348.09
2023-11-30T01:38:41.373Z,100354.97
2023-11-30T01:41:10.385Z,100362.69
2023-11-30T01:43:40.528Z,100366.44
2023-11-30T01:46:10.148Z,100372.72
2023-11-30T01:48:39.086Z,100362.91
2023-11-30T01:51:11.528Z,100372.78
2023-11-30T01:53:41.389Z,100363.50
2023-11-30T01:56:11.097Z,100368.00
2023-11-30T01:58:40.845Z,100374.53
2023-11-30T02:01:10.131Z,100368.75
2023-11-30T02:03:39.145Z,100373.44
2023-11-30T02:06:08.294Z,100377.16
2023-11-30T02:08:37.180Z,100385.75
2023-11-30T02:11:05.843Z,100393.84
2023-11-30T02:13:34.153Z,100386.13
2023-11-30T02:16:03.952Z,100395.75
2023-11-30T02:18:32.356Z,100401.38
2023-11-30T02:21:00.731Z,100411.75
2023-11-30T02:23:30.722Z,100415.44
2023-11-30T02:25:59.045Z,100414.50
2023-11-30T02:28:27.414Z,100421.38
2023-11-30T02:30:55.752Z,100427.78
2023-11-30T02:33:24.124Z,100434.19
2023-11-30T02:35:52.495Z,100431.72
2023-11-30T02:38:20.926Z,100444.91
2023-11-30T02:40:50.857Z,100444.81
2023-11-30T02:43:19.209Z,100446.41
2023-11-30T02:45:47.939Z,100454.63
2023-11-30T02:48:17.217Z,100460.06
2023-11-30T02:50:45.600Z,100463.44
2023-11-30T02:53:14.044Z,100462.06
2023-11-30T02:55:42.733Z,100466.63
2023-11-30T02:58:12.466Z,100469.03
2023-11-30T03:00:40.748Z,100466.91
2023-11-30T03:03:09.137Z,100472.19
2023-11-30T03:05:37.860Z,100466.91
2023-11-30T03:08:06.653Z,100473.97
2023-11-30T03:10:34.929Z,100475.75
2023-11-30T03:13:03.450Z,100474.47
2023-11-30T03:15:33.451Z,100466.72
2023-11-30T03:18:01.853Z,100464.97
2023-11-30T03:20:30.365Z,100474.97
2023-11-30T03:22:58.777Z,100477.03
2023-11-30T03:25:27.302Z,100473.75
2023-11-30T03:27:55.577Z,100478.47
2023-11-30T03:30:24.008Z,100480.41
2023-11-30T03:32:54.036Z,100485.69
2023-11-30T03:35:22.576Z,100482.81
2023-11-30T03:37:51.305Z,100489.22
2023-11-30T03:40:19.692Z,100495.75
2023-11-30T03:42:48.248Z,100493.59
2023-11-30T03:45:16.745Z,100501.81
2023-11-30T03:47:45.175Z,100505.72
2023-11-30T03:50:14.963Z,100516.50
2023-11-30T03:52:43.444Z,100515.19
2023-11-30T03:55:12.044Z,100520.66
2023-11-30T03:57:40.450Z,100518.56
2023-11-30T04:00:14.484Z,100512.25
2023-11-30T04:02:43.679Z,100524.88
2023-11-30T04:05:15.156Z,100514.81
2023-11-30T04:07:44.687Z,100514.22
2023-11-30T04:10:14.275Z,100532.72
2023-11-30T04:12:43.215Z,100530.66
2023-11-30T04:15:12.030Z,100532.41
2023-11-30T04:17:40.578Z,100524.88
2023-11-30T04:20:10.830Z,100530.31
2023-11-30T04:22:40.537Z,100538.56
2023-11-30T04:25:09.770Z,100545.91
2023-11-30T04:27:38.576Z,100550.59
2023-11-30T04:30:08.252Z,100560.53
2023-11-30T04:32:36.623Z,100570.50
2023-11-30T04:35:05.404Z,100573.59
2023-11-30T04:37:33.743Z,100584.06
2023-11-30T04:40:03.494Z,100596.38
2023-11-30T04:42:31.888Z,100595.59
2023-11-30T04:45:00.484Z,100600.72
2023-11-30T04:47:28.891Z,100602.94
2023-11-30T04:49:57.246Z,100609.47
2023-11-30T04:52:25.757Z,100608.34
2023-11-30T04:54:54.072Z,100617.88
2023-11-30T04:57:23.959Z,100621.53
2023-11-30T04:59:52.577Z,100634.38
2023-11-30T05:02:21.102Z,100641.69
2023-11-30T05:04:50.356Z,100646.19
2023-11-30T05:07:19.201Z,100646.31
2023-11-30T05:09:47.631Z,100644.47
2023-11-30T05:12:16.155Z,100657.34
2023-11-30T05:14:45.875Z,100656.75
2023-11-30T05:17:14.373Z,100666.94
2023-11-30T05:19:42.825Z,100672.91
2023-11-30T05:22:12.530Z,100672.78
2023-11-30T05:24:41.159Z,100687.25
2023-11-30T05:27:09.796Z,100692.97
2023-11-30T05:29:38.449Z,100702.00
2023-11-30T05:32:08.367Z,100710.16
2023-11-30T05:34:37.411Z,100709.81
2023-11-30T05:37:07.004Z,100715.44
2023-11-30T05:39:37.743Z,100721.72
2023-11-30T05:42:06.882Z,100729.28
2023-11-30T05:44:35.584Z,100739.50
2023-11-30T05:47:04.102Z,100742.69
2023-11-30T05:49:33.967Z,100742.81
2023-11-30T05:52:02.369Z,100751.41
2023-11-30T05:54:30.892Z,100747.19
2023-11-30T05:57:01.150Z,100736.63
2023-11-30T05:59:29.872Z,100738.72
2023-11-30T06:01:58.668Z,100740.44
2023-11-30T06:04:27.216Z,100743.38
2023-11-30T06:06:57.023Z,100738.13
2023-11-30T06:09:25.433Z,100743.28
2023-11-30T06:11:53.967Z,100757.41
2023-11-30T06:14:22.300Z,100747.50
2023-11-30T06:16:50.728Z,100750.69
2023-11-30T06:19:19.252Z,100760.53
2023-11-30T06:21:47.615Z,100759.16
2023-11-30T06:24:17.462Z,100754.44
2023-11-30T06:26:46.063Z,100748.38
2023-11-30T06:29:16.986Z,100753.50
2023-11-30T06:31:45.430Z,100764.47
2023-11-30T06:34:13.946Z,100770.50
2023-11-30T06:36:42.290Z,100776.72
2023-11-30T06:39:10.935Z,100771.44
2023-11-30T06:41:40.940Z,100764.25
2023-11-30T06:44:09.904Z,100764.56
2023-11-30T06:46:40.407Z,100775.66
2023-11-30T06:49:08.938Z,100767.03
2023-11-30T06:51:37.598Z,100780.50
2023-11-30T06:54:06.338Z,100772.63
2023-11-30T06:56:34.703Z,100776.16
2023-11-30T06:59:04.516Z,100779.44
2023-11-30T07:01:33.027Z,100775.75
2023-11-30T07:04:01.808Z,100780.16
2023-11-30T07:06:31.480Z,100780.94
2023-11-30T07:09:00.141Z,100778.47
2023-11-30T07:11:28.602Z,100776.00
2023-11-30T07:13:56.996Z,100768.25
2023-11-30T07:16:26.832Z,100756.97
2023-11-30T07:18:55.427Z,100729.19
2023-11-30T07:21:23.975Z,100723.91
2023-11-30T07:23:52.445Z,100721.38
2023-11-30T07:26:21.209Z,100719.00
2023-11-30T07:28:52.064Z,100722.63
2023-11-30T07:31:21.125Z,100724.75
2023-11-30T07:33:51.083Z,100722.22
2023-11-30T07:36:19.496Z,100722.31
2023-11-30T07:38:48.103Z,100728.44
2023-11-30T07:41:18.377Z,100743.72
2023-11-30T07:43:47.361Z,100748.81
2023-11-30T07:46:16.233Z,100753.13
2023-11-30T07:48:45.313Z,100760.38
2023-11-30T07:51:15.253Z,100765.19
2023-11-30T07:53:43.738Z,100771.38
2023-11-30T07:56:12.717Z,100772.72
2023-11-30T07:58:42.053Z,100779.16
2023-11-30T08:01:10.802Z,100784.38
2023-11-30T08:03:39.749Z,100775.84
2023-11-30T08:06:08.959Z,100781.44
2023-11-30T08:08:38.718Z,100781.56
2023-11-30T08:11:09.005Z,100778.72
2023-11-30T08:13:37.445Z,100781.16
2023-11-30T08:16:06.450Z,100782.56
2023-11-30T08:18:35.630Z,100785.56
2023-11-30T08:21:04.642Z,100779.50
2023-11-30T08:23:34.422Z,100781.09
2023-11-30T08:26:05.271Z,100777.91
2023-11-30T08:28:33.908Z,100785.31
2023-11-30T08:31:06.353Z,100787.84
2023-11-30T08:33:35.886Z,100790.63
2023-11-30T08:36:06.182Z,100792.75
2023-11-30T08:38:37.681Z,100787.75
2023-11-30T08:41:09.384Z,100782.41
2023-11-30T08:43:37.769Z,100775.00
2023-11-30T08:46:06.536Z,100763.84
2023-11-30T08:48:34.895Z,100755.59
2023-11-30T08:51:03.383Z,100759.13
2023-11-30T08:53:31.792Z,100754.81
2023-11-30T08:56:00.183Z,100756.16
2023-11-30T08:58:30.011Z,100753.50
2023-11-30T09:00:58.599Z,100759.66
2023-11-30T09:03:28.200Z,100747.72
2023-11-30T09:05:56.593Z,100736.81
2023-11-30T09:08:25.008Z,100738.69
2023-11-30T09:10:53.388Z,100731.50
2023-11-30T09:13:21.869Z,100727.25
2023-11-30T09:15:51.834Z,100719.53
2023-11-30T09:18:20.289Z,100718.47
2023-11-30T09:20:48.690Z,100725.38
2023-11-30T09:23:17.416Z,100711.84
2023-11-30T09:25:45.843Z,100718.75
2023-11-30T09:28:14.252Z,100713.44
2023-11-30T09:30:42.665Z,100717.97
2023-11-30T09:33:13.079Z,100716.88
2023-11-30T09:35:41.712Z,100706.50
2023-11-30T09:38:10.879Z,100702.25
2023-11-30T09:40:40.517Z,100704.63
2023-11-30T09:43:10.057Z,100695.56
2023-11-30T09:45:41.015Z,100695.56
2023-11-30T09:48:09.452Z,100683.06
2023-11-30T09:50:39.465Z,100670.28
2023-11-30T09:53:08.410Z,100674.81
2023-11-30T09:55:37.886Z,100698.22
2023-11-30T09:58:06.774Z,100691.50
2023-11-30T10:00:35.555Z,100683.22
2023-11-30T10:03:07.098Z,100681.09
2023-11-30T10:05:35.787Z,100681.88
2023-11-30T10:08:05.934Z,100681.00
2023-11-30T10:10:34.243Z,100680.06
2023-11-30T10:13:02.676Z,100681.41
2023-11-30T10:15:31.521Z,100670.69
2023-11-30T10:18:00.402Z,100674.34
2023-11-30T10:20:29.099Z,100670.56
2023-11-30T10:22:57.470Z,100666.53
2023-11-30T10:25:27.362Z,100664.69
2023-11-30T10:27:59.239Z,100682.88
2023-11-30T10:30:29.161Z,100679.34
2023-11-30T10:32:59.436Z,100676.09
2023-11-30T10:35:31.670Z,100682.50
2023-11-30T10:38:01.507Z,100673.38
2023-11-30T10:40:32.312Z,100668.66
2023-11-30T10:43:06.500Z,100677.06
2023-11-30T10:45:42.490Z,100662.72
2023-11-30T10:48:14.341Z,100669.53
2023-11-30T10:50:43.349Z,100658.56
2023-11-30T10:53:21.129Z,100653.47
2023-11-30T10:55:51.106Z,100664.88
2023-11-30T10:58:25.841Z,100665.66
2023-11-30T11:01:00.415Z,100660.88
2023-11-30T11:03:29.933Z,100647.47
2023-11-30T11:05:58.361Z,100660.25
2023-11-30T11:08:29.903Z,100652.38
2023-11-30T11:11:07.987Z,100654.69
2023-11-30T11:13:46.430Z,100644.06
2023-11-30T11:16:15.268Z,100644.16
2023-11-30T11:18:45.399Z,100644.38
2023-11-30T11:21:30.266Z,100638.44
2023-11-30T11:24:04.795Z,100632.34
2023-11-30T11:26:49.373Z,100641.78
2023-11-30T11:29:24.270Z,100636.13
2023-11-30T11:32:00.341Z,100649.34
2023-11-30T11:34:28.887Z,100654.03
2023-11-30T11:36:58.224Z,100652.34
2023-11-30T11:39:26.729Z,100648.22
2023-11-30T11:41:56.598Z,100638.63
2023-11-30T11:44:26.095Z,100645.84
2023-11-30T11:46:54.661Z,100649.41
2023-11-30T11:49:22.941Z,100642.50
2023-11-30T11:51:51.338Z,100642.50
2023-11-30T11:54:21.165Z,100644.84
2023-11-30T11:56:51.179Z,100649.84
2023-11-30T11:59:28.541Z,100652.09
2023-11-30T12:01:59.170Z,100651.47
2023-11-30T12:04:32.362Z,100644.06
2023-11-30T12:07:01.646Z,100651.78
2023-11-30T12:09:30.189Z,100643.50
2023-11-30T12:11:58.812Z,100643.22
2023-11-30T12:14:29.166Z,100644.78
2023-11-30T12:16:57.618Z,100644.66
2023-11-30T12:19:26.084Z,100636.50
2023-11-30T12:21:54.453Z,100628.97
2023-11-30T12:24:23.049Z,100615.44
2023-11-30T12:26:51.492Z,100630.38
2023-11-30T12:29:20.204Z,100642.88
2023-11-30T12:31:50.007Z,100654.03
2023-11-30T12:34:18.541Z,100654.66
2023-11-30T12:36:46.993Z,100650.34
2023-11-30T12:39:17.097Z,100658.59
2023-11-30T12:41:45.573Z,100654.56
2023-11-30T12:44:13.949Z,100651.06
2023-11-30T12:46:42.705Z,100635.59
2023-11-30T12:49:12.762Z,100628.44
2023-11-30T12:51:41.091Z,100632.31
2023-11-30T12:54:09.456Z,100632.03
2023-11-30T12:56:37.882Z,100638.25
2023-11-30T12:59:06.175Z,100631.81
2023-11-30T13:01:34.545Z,100627.09
2023-11-30T13:04:03.959Z,100622.03
2023-11-30T13:06:33.946Z,100633.75
2023-11-30T13:09:02.371Z,100634.50
2023-11-30T13:11:30.704Z,100629.63
2023-11-30T13:13:58.958Z,100618.75
2023-11-30T13:16:27.443Z,100623.22
2023-11-30T13:18:56.159Z,100616.28
2023-11-30T13:21:24.957Z,100607.31
2023-11-30T13:23:54.810Z,100609.72
2023-11-30T13:26:23.259Z,100604.16
2023-11-30T13:28:52.725Z,100603.56
2023-11-30T13:31:21.754Z,100608.78
2023-11-30T13:33:50.230Z,100605.56
2023-11-30T13:36:19.361Z,100605.06
2023-11-30T13:38:48.612Z,100612.78
2023-11-30T13:41:19.600Z,100612.50
2023-11-30T13:43:48.646Z,100606.69
2023-11-30T13:46:17.066Z,100606.19
2023-11-30T13:48:46.092Z,100606.72
2023-11-30T13:51:15.214Z,100609.34
2023-11-30T13:53:43.602Z,100595.53
2023-11-30T13:56:12.726Z,100591.78
2023-11-30T13:58:42.461Z,100601.16
2023-11-30T14:01:11.382Z,100592.81
2023-11-30T14:03:40.068Z,100592.28
2023-11-30T14:06:11.010Z,100588.53
2023-11-30T14:08:41.216Z,100586.16
2023-11-30T14:11:13.301Z,100593.34
2023-11-30T14:13:43.303Z,100594.41
2023-11-30T14:16:12.863Z,100590.19
2023-11-30T14:18:42.532Z,100595.88
2023-11-30T14:21:11.189Z,100591.88
2023-11-30T14:23:40.286Z,100595.59
2023-11-30T14:26:08.972Z,100589.69
2023-11-30T14:28:37.473Z,100577.25
2023-11-30T14:31:08.760Z,100567.38
2023-11-30T14:33:37.128Z,100558.03
2023-11-30T14:36:05.727Z,100565.75
2023-11-30T14:38:34.449Z,100572.69
2023-11-30T14:41:02.916Z,100580.47
2023-11-30T14:43:31.374Z,100587.66
2023-11-30T14:45:59.674Z,100582.59
2023-11-30T14:48:29.519Z,100587.16
2023-11-30T14:50:58.021Z,100586.91
2023-11-30T14:53:26.303Z,100591.97
2023-11-30T14:55:54.753Z,100606.06
2023-11-30T14:58:23.157Z,100614.59
2023-11-30T15:00:51.910Z,100619.38
2023-11-30T15:03:20.936Z,100621.53
2023-11-30T15:05:50.680Z,100615.41
2023-11-30T15:08:21.636Z,100614.06
2023-11-30T15:10:50.468Z,100615.69
2023-11-30T15:13:21.049Z,100614.38
2023-11-30T15:15:49.453Z,100620.75
2023-11-30T15:18:19.145Z,100613.28
2023-11-30T15:20:47.585Z,100613.03
2023-11-30T15:23:17.468Z,100608.75
2023-11-30T15:25:45.951Z,100610.09
2023-11-30T15:28:14.408Z,100618.88
2023-11-30T15:30:45.199Z,100621.53
2023-11-30T15:33:14.339Z,100629.53
2023-11-30T15:35:42.736Z,100631.41
2023-11-30T15:38:11.203Z,100629.00
2023-11-30T15:40:40.983Z,100627.38
2023-11-30T15:43:09.458Z,100631.91
2023-11-30T15:45:37.975Z,100649.97
2023-11-30T15:48:07.234Z,100643.84
2023-11-30T15:50:36.414Z,100633.47
2023-11-30T15:53:04.874Z,100632.97
2023-11-30T15:55:33.452Z,100627.38
2023-11-30T15:58:03.603Z,100624.72
2023-11-30T16:00:32.210Z,100620.69
2023-11-30T16:03:02.032Z,100619.38
2023-11-30T16:05:30.801Z,100626.28
2023-11-30T16:07:59.797Z,100626.28
2023-11-30T16:10:28.321Z,100622.25
2023-11-30T16:12:56.736Z,100627.34
2023-11-30T16:15:28.255Z,100631.88
2023-11-30T16:17:57.719Z,100626.81
2023-11-30T16:20:26.239Z,100634.28
2023-11-30T16:22:54.642Z,100628.47
2023-11-30T16:25:23.188Z,100617.00
2023-11-30T16:27:52.261Z,100616.19
2023-11-30T16:30:22.809Z,100609.03
2023-11-30T16:32:52.640Z,100604.81
2023-11-30T16:35:21.174Z,100606.94
2023-11-30T16:37:49.553Z,100599.00
2023-11-30T16:40:17.933Z,100594.69
2023-11-30T16:42:46.275Z,100607.22
2023-11-30T16:45:15.161Z,100584.09
2023-11-30T16:47:43.504Z,100570.19
2023-11-30T16:50:15.901Z,100589.91
2023-11-30T16:52:48.763Z,100596.50
2023-11-30T16:55:17.344Z,100578.16
2023-11-30T16:57:45.853Z,100579.22
2023-11-30T17:00:15.521Z,100575.53
2023-11-30T17:02:43.854Z,100569.38
2023-11-30T17:05:13.664Z,100570.72
2023-11-30T17:07:43.567Z,100564.31
2023-11-30T17:10:12.134Z,100587.44
2023-11-30T17:12:39.641Z,100597.47
2023-11-30T17:15:09.027Z,100575.31
2023-11-30T17:17:37.708Z,100564.63
2023-11-30T17:20:08.901Z,100563.00
2023-11-30T17:22:38.832Z,100555.50
2023-11-30T17:25:08.028Z,100563.50
2023-11-30T17:27:36.472Z,100560.59
2023-11-30T17:30:05.700Z,100553.16
2023-11-30T17:32:34.502Z,100558.44
2023-11-30T17:35:03.317Z,100547.19
2023-11-30T17:37:31.849Z,100542.03
2023-11-30T17:40:01.559Z,100542.75
2023-11-30T17:42:30.458Z,100541.94
2023-11-30T17:44:59.058Z,100540.84
2023-11-30T17:47:27.388Z,100534.63
2023-11-30T17:49:55.855Z,100529.78
2023-11-30T17:52:24.273Z,100531.59
2023-11-30T17:54:52.725Z,100526.44
2023-11-30T17:57:22.587Z,100515.97
2023-11-30T17:59:51.105Z,100521.09
2023-11-30T18:02:20.576Z,100510.81
2023-11-30T18:04:48.973Z,100519.59
2023-11-30T18:07:17.430Z,100511.50
2023-11-30T18:09:48.148Z,100518.16
2023-11-30T18:12:16.594Z,100516.75
2023-11-30T18:14:48.302Z,100517.00
2023-11-30T18:17:16.948Z,100517.72
2023-11-30T18:19:45.359Z,100514.56
2023-11-30T18:22:15.073Z,100524.19
2023-11-30T18:24:43.634Z,100516.75
2023-11-30T18:27:12.005Z,100520.00
2023-11-30T18:29:40.690Z,100519.72
2023-11-30T18:32:10.477Z,100512.81
2023-11-30T18:34:39.041Z,100503.41
2023-11-30T18:37:07.906Z,100509.09
2023-11-30T18:39:36.340Z,100510.13
2023-11-30T18:42:05.033Z,100501.84
2023-11-30T18:44:33.377Z,100499.59
2023-11-30T18:47:03.087Z,100502.84
2023-11-30T18:49:34.005Z,100506.47
2023-11-30T18:52:02.347Z,100510.25
2023-11-30T18:54:30.773Z,100507.56
2023-11-30T18:56:59.321Z,100503.88
2023-11-30T18:59:28.845Z,100498.25
2023-11-30T19:01:57.508Z,100495.50
2023-11-30T19:04:26.143Z,100489.91
2023-11-30T19:06:56.196Z,100487.28
2023-11-30T19:09:24.617Z,100480.81
2023-11-30T19:11:53.000Z,100492.59
2023-11-30T19:14:21.544Z,100482.41
2023-11-30T19:16:50.293Z,100483.44
2023-11-30T19:19:19.167Z,100482.91
2023-11-30T19:21:47.571Z,100476.16
2023-11-30T19:24:17.550Z,100476.56
2023-11-30T19:26:46.210Z,100472.91
2023-11-30T19:29:15.409Z,100472.00
2023-11-30T19:31:43.910Z,100466.84
2023-11-30T19:34:13.438Z,100462.28
2023-11-30T19:36:41.968Z,100456.72
2023-11-30T19:39:10.616Z,100448.63
2023-11-30T19:41:43.295Z,100441.94
2023-11-30T19:44:12.811Z,100439.00
2023-11-30T19:46:41.339Z,100440.91
2023-11-30T19:49:09.863Z,100427.38
2023-11-30T19:51:38.438Z,100430.03
2023-11-30T19:54:07.177Z,100426.25
2023-11-30T19:56:37.116Z,100411.94
2023-11-30T19:59:06.961Z,100411.28
2023-11-30T20:01:35.451Z,100410.91
2023-11-30T20:04:04.282Z,100404.00
2023-11-30T20:06:32.722Z,100394.97
2023-11-30T20:09:01.020Z,100394.81
2023-11-30T20:11:29.451Z,100394.81
2023-11-30T20:13:58.118Z,100389.63
2023-11-30T20:16:27.913Z,100395.81
2023-11-30T20:18:56.308Z,100383.94
2023-11-30T20:21:25.185Z,100385.00
2023-11-30T20:23:53.588Z,100386.09
2023-11-30T20:26:22.224Z,100388.50
2023-11-30T20:28:50.477Z,100374.47
2023-11-30T20:31:18.987Z,100364.38
2023-11-30T20:33:51.425Z,100370.16
2023-11-30T20:36:19.929Z,100368.88
2023-11-30T20:38:48.396Z,100379.84
2023-11-30T20:41:17.040Z,100371.59
2023-11-30T20:43:45.459Z,100376.72
2023-11-30T20:46:16.830Z,100380.72
2023-11-30T20:48:45.997Z,100386.31
2023-11-30T20:51:19.442Z,100386.41
2023-11-30T20:53:47.933Z,100382.22
2023-11-30T20:56:16.355Z,100389.09
2023-11-30T20:58:46.936Z,100381.06
2023-11-30T21:01:16.211Z,100394.91
2023-11-30T21:03:44.715Z,100383.47
2023-11-30T21:06:13.211Z,100379.94
2023-11-30T21:08:43.046Z,100374.13
2023-11-30T21:11:11.723Z,100377.88
2023-11-30T21:13:40.106Z,100385.38
2023-11-30T21:16:09.396Z,100386.00
2023-11-30T21:18:38.015Z,100379.94
2023-11-30T21:21:07.069Z,100384.72
2023-11-30T21:23:35.588Z,100381.84
2023-11-30T21:26:05.900Z,100385.75
2023-11-30T21:28:34.428Z,100373.41
2023-11-30T21:31:04.572Z,100375.31
2023-11-30T21:33:34.674Z,100370.13
2023-11-30T21:36:03.708Z,100370.13
2023-11-30T21:38:32.380Z,100359.16
2023-11-30T21:41:01.108Z,100357.06
2023-11-30T21:43:30.987Z,100349.66
2023-11-30T21:45:59.513Z,100340.00
2023-11-30T21:48:28.041Z,100326.72
2023-11-30T21:50:57.641Z,100322.69
2023-11-30T21:53:29.057Z,100307.97
2023-11-30T21:55:57.489Z,100302.41
2023-11-30T21:58:25.768Z,100304.97
2023-11-30T22:00:55.862Z,100311.44
2023-11-30T22:03:24.551Z,100312.22
2023-11-30T22:05:53.071Z,100302.78
2023-11-30T22:08:21.434Z,100296.38
2023-11-30T22:10:50.886Z,100284.59
2023-11-30T22:13:19.190Z,100289.94
2023-11-30T22:15:48.087Z,100294.91
2023-11-30T22:18:19.899Z,100285.03
2023-11-30T22:20:48.648Z,100290.81
2023-11-30T22:23:17.144Z,100291.81
2023-11-30T22:25:49.198Z,100281.13
2023-11-30T22:28:21.741Z,100277.50
2023-11-30T22:30:50.183Z,100276.56
2023-11-30T22:33:19.904Z,100268.09
2023-11-30T22:35:48.399Z,100270.31
2023-11-30T22:38:16.603Z,100262.09
2023-11-30T22:40:45.236Z,100270.84
2023-11-30T22:43:13.574Z,100266.16
2023-11-30T22:45:41.924Z,100266.25
2023-11-30T22:48:10.300Z,100251.59
2023-11-30T22:50:40.112Z,100253.03
2023-11-30T22:53:08.522Z,100256.91
2023-11-30T22:55:37.083Z,100259.88
2023-11-30T22:58:05.450Z,100249.22
2023-11-30T23:00:35.206Z,100251.59
2023-11-30T23:03:03.816Z,100255.13
2023-11-30T23:05:32.904Z,100242.22
2023-11-30T23:08:02.646Z,100239.41
2023-11-30T23:10:30.995Z,100233.78
2023-11-30T23:13:01.186Z,100237.75
2023-11-30T23:15:29.973Z,100239.25
2023-11-30T23:17:58.387Z,100243.03
2023-11-30T23:20:26.659Z,100248.56
2023-11-30T23:22:54.923Z,100252.66
2023-11-30T23:25:24.722Z,100248.06
2023-11-30T23:27:53.067Z,100235.16
2023-11-30T23:30:21.448Z,100226.38
2023-11-30T23:32:52.901Z,100222.97
2023-11-30T23:35:21.473Z,100222.41
2023-11-30T23:37:50.153Z,100225.56
2023-11-30T23:40:18.638Z,100233.63
2023-11-30T23:42:48.402Z,100240.28
2023-11-30T23:45:16.924Z,100223.19
2023-11-30T23:47:45.181Z,100227.06
2023-11-30T23:50:13.868Z,100228.50
2023-11-30T23:52:42.490Z,100228.88
2023-11-30T23:55:11.243Z,100224.47
2023-11-30T23:57:39.590Z,100231.25
